createdAt,value
2017-12-06T00:00:48.450Z,101875.20
2017-12-06T00:01:54.660Z,101873.00
2017-12-06T00:03:00.666Z,101873.01
2017-12-06T00:04:06.699Z,101880.41
2017-12-06T00:05:12.627Z,101881.27
2017-12-06T00:06:18.935Z,101869.09
2017-12-06T00:07:25.783Z,101872.16
2017-12-06T00:08:31.882Z,101871.73
2017-12-06T00:09:38.018Z,101866.48
2017-12-06T00:10:44.124Z,101868.23
2017-12-06T00:11:50.216Z,101864.78
2017-12-06T00:13:02.727Z,101866.07
2017-12-06T00:14:14.208Z,101873.95
2017-12-06T00:15:25.704Z,101863.47
2017-12-06T00:16:31.847Z,101868.69
2017-12-06T00:17:37.938Z,101868.26
2017-12-06T00:18:45.043Z,101866.10
2017-12-06T00:19:51.401Z,101870.00
2017-12-06T00:20:57.590Z,101865.21
2017-12-06T00:22:03.674Z,101859.16
2017-12-06T00:23:10.730Z,101865.23
2017-12-06T00:24:16.789Z,101863.51
2017-12-06T00:25:23.199Z,101860.50
2017-12-06T00:26:32.443Z,101859.19
2017-12-06T00:27:38.632Z,101855.69
2017-12-06T00:28:44.579Z,101860.91
2017-12-06T00:29:50.685Z,101845.69
2017-12-06T00:30:56.849Z,101850.02
2017-12-06T00:32:02.895Z,101849.58
2017-12-06T00:33:09.054Z,101849.56
2017-12-06T00:34:15.335Z,101848.27
2017-12-06T00:35:21.451Z,101847.83
2017-12-06T00:36:27.561Z,101852.59
2017-12-06T00:37:33.749Z,101849.95
2017-12-06T00:38:39.872Z,101853.00
2017-12-06T00:39:45.977Z,101843.87
2017-12-06T00:40:52.098Z,101850.84
2017-12-06T00:41:58.233Z,101856.47
2017-12-06T00:43:04.386Z,101854.27
2017-12-06T00:44:17.357Z,101850.37
2017-12-06T00:45:23.141Z,101854.73
2017-12-06T00:46:29.260Z,101850.81
2017-12-06T00:47:35.982Z,101854.30
2017-12-06T00:48:42.092Z,101851.24
2017-12-06T00:49:48.277Z,101857.33
2017-12-06T00:50:54.468Z,101855.58
2017-12-06T00:52:03.378Z,101855.16
2017-12-06T00:53:14.409Z,101856.49
2017-12-06T00:54:20.535Z,101854.32
2017-12-06T00:55:26.634Z,101861.70
2017-12-06T00:56:32.818Z,101857.80
2017-12-06T00:57:40.915Z,101862.59
2017-12-06T00:58:47.100Z,101858.66
2017-12-06T00:59:53.242Z,101859.53
2017-12-06T01:00:59.391Z,101859.09
2017-12-06T01:02:05.580Z,101864.31
2017-12-06T01:03:11.796Z,101859.06
2017-12-06T01:04:18.003Z,101851.27
2017-12-06T01:05:24.143Z,101859.07
2017-12-06T01:06:30.264Z,101856.05
2017-12-06T01:07:36.211Z,101858.23
2017-12-06T01:08:42.432Z,101858.66
2017-12-06T01:09:48.668Z,101863.00
2017-12-06T01:10:54.842Z,101855.16
2017-12-06T01:12:00.995Z,101852.16
2017-12-06T01:13:07.186Z,101852.59
2017-12-06T01:14:13.360Z,101864.34
2017-12-06T01:15:19.506Z,101860.42
2017-12-06T01:16:25.589Z,101861.70
2017-12-06T01:17:31.727Z,101858.25
2017-12-06T01:18:37.910Z,101858.66
2017-12-06T01:19:44.039Z,101860.37
2017-12-06T01:20:54.027Z,101856.06
2017-12-06T01:22:00.157Z,101853.47
2017-12-06T01:23:06.332Z,101858.68
2017-12-06T01:24:12.457Z,101861.31
2017-12-06T01:25:19.825Z,101858.69
2017-12-06T01:26:25.918Z,101852.22
2017-12-06T01:27:32.041Z,101852.22
2017-12-06T01:28:38.212Z,101859.58
2017-12-06T01:29:44.179Z,101859.14
2017-12-06T01:30:50.349Z,101858.28
2017-12-06T01:31:56.533Z,101861.31
2017-12-06T01:33:02.764Z,101859.16
2017-12-06T01:34:08.890Z,101860.88
2017-12-06T01:35:15.052Z,101861.31
2017-12-06T01:36:21.174Z,101853.50
2017-12-06T01:37:27.159Z,101863.03
2017-12-06T01:38:33.352Z,101860.41
2017-12-06T01:39:39.470Z,101859.55
2017-12-06T01:40:45.577Z,101860.00
2017-12-06T01:41:51.680Z,101861.30
2017-12-06T01:42:57.841Z,101858.67
2017-12-06T01:44:04.489Z,101863.02
2017-12-06T01:45:10.675Z,101860.02
2017-12-06T01:46:16.823Z,101858.30
2017-12-06T01:47:22.761Z,101857.81
2017-12-06T01:48:28.931Z,101857.83
2017-12-06T01:49:35.069Z,101856.50
2017-12-06T01:50:41.175Z,101856.08
2017-12-06T01:51:47.320Z,101854.34
2017-12-06T01:52:54.357Z,101856.47
2017-12-06T01:54:00.562Z,101855.17
2017-12-06T01:55:06.378Z,101858.64
2017-12-06T01:56:11.594Z,101856.42
2017-12-06T01:57:17.153Z,101859.45
2017-12-06T01:58:22.610Z,101852.94
2017-12-06T01:59:28.538Z,101850.33
2017-12-06T02:00:34.675Z,101856.40
2017-12-06T02:01:39.562Z,101856.34
2017-12-06T02:02:47.878Z,101848.97
2017-12-06T02:03:54.051Z,101856.37
2017-12-06T02:05:00.195Z,101856.37
2017-12-06T02:06:05.610Z,101854.63
2017-12-06T02:07:18.502Z,101855.05
2017-12-06T02:08:24.640Z,101856.38
2017-12-06T02:09:30.872Z,101856.81
2017-12-06T02:10:36.868Z,101856.80
2017-12-06T02:11:42.636Z,101857.66
2017-12-06T02:12:48.859Z,101855.05
2017-12-06T02:13:54.943Z,101856.78
2017-12-06T02:15:01.103Z,101867.21
2017-12-06T02:16:06.899Z,101862.89
2017-12-06T02:17:12.834Z,101856.84
2017-12-06T02:18:18.782Z,101856.45
2017-12-06T02:19:24.190Z,101854.71
2017-12-06T02:20:29.442Z,101859.49
2017-12-06T02:21:35.393Z,101855.13
2017-12-06T02:22:41.156Z,101850.33
2017-12-06T02:23:46.635Z,101852.91
2017-12-06T02:24:52.138Z,101851.63
2017-12-06T02:25:57.625Z,101852.03
2017-12-06T02:27:03.040Z,101851.53
2017-12-06T02:28:08.801Z,101848.09
2017-12-06T02:29:13.901Z,101847.67
2017-12-06T02:30:20.024Z,101846.77
2017-12-06T02:31:26.168Z,101838.51
2017-12-06T02:32:32.295Z,101842.42
2017-12-06T02:33:38.483Z,101841.98
2017-12-06T02:34:44.634Z,101839.43
2017-12-06T02:35:50.590Z,101836.41
2017-12-06T02:36:56.724Z,101839.02
2017-12-06T02:38:02.904Z,101836.84
2017-12-06T02:39:08.867Z,101832.52
2017-12-06T02:40:25.947Z,101828.64
2017-12-06T02:41:42.976Z,101824.76
2017-12-06T02:43:00.004Z,101823.89
2017-12-06T02:44:17.213Z,101825.12
2017-12-06T02:45:29.181Z,101828.20
2017-12-06T02:46:35.132Z,101821.23
2017-12-06T02:47:41.239Z,101816.03
2017-12-06T02:48:47.028Z,101817.36
2017-12-06T02:49:52.933Z,101819.58
2017-12-06T02:50:59.092Z,101825.63
2017-12-06T02:52:05.200Z,101825.67
2017-12-06T02:53:11.316Z,101817.88
2017-12-06T02:54:17.473Z,101819.60
2017-12-06T02:55:23.309Z,101819.55
2017-12-06T02:56:29.156Z,101818.27
2017-12-06T02:57:34.466Z,101820.88
2017-12-06T02:58:40.595Z,101817.42
2017-12-06T02:59:46.705Z,101815.69
2017-12-06T03:00:52.186Z,101818.70
2017-12-06T03:01:58.319Z,101812.56
2017-12-06T03:03:04.432Z,101813.90
2017-12-06T03:04:10.628Z,101818.64
2017-12-06T03:05:16.390Z,101812.53
2017-12-06T03:06:22.220Z,101811.67
2017-12-06T03:07:28.407Z,101809.05
2017-12-06T03:08:34.369Z,101809.52
2017-12-06T03:09:40.462Z,101813.48
2017-12-06T03:10:46.193Z,101803.08
2017-12-06T03:11:52.148Z,101803.48
2017-12-06T03:12:58.266Z,101806.11
2017-12-06T03:14:04.440Z,101804.83
2017-12-06T03:15:16.626Z,101804.81
2017-12-06T03:16:22.763Z,101801.73
2017-12-06T03:17:29.345Z,101806.48
2017-12-06T03:18:35.747Z,101806.06
2017-12-06T03:19:41.842Z,101802.60
2017-12-06T03:20:47.935Z,101805.20
2017-12-06T03:21:53.879Z,101803.05
2017-12-06T03:23:00.066Z,101803.46
2017-12-06T03:24:06.331Z,101808.66
2017-12-06T03:25:12.472Z,101804.38
2017-12-06T03:26:18.620Z,101807.81
2017-12-06T03:27:24.730Z,101804.33
2017-12-06T03:28:30.861Z,101804.34
2017-12-06T03:29:36.969Z,101806.53
2017-12-06T03:30:43.105Z,101800.02
2017-12-06T03:31:49.398Z,101802.61
2017-12-06T03:32:55.512Z,101800.80
2017-12-06T03:34:02.081Z,101801.28
2017-12-06T03:35:08.195Z,101803.90
2017-12-06T03:36:14.377Z,101803.48
2017-12-06T03:37:20.714Z,101804.31
2017-12-06T03:38:26.852Z,101802.14
2017-12-06T03:39:32.956Z,101796.09
2017-12-06T03:40:39.086Z,101801.75
2017-12-06T03:41:45.325Z,101798.69
2017-12-06T03:42:51.480Z,101797.00
2017-12-06T03:43:57.635Z,101797.42
2017-12-06T03:45:03.792Z,101797.41
2017-12-06T03:46:10.015Z,101796.13
2017-12-06T03:47:16.129Z,101794.81
2017-12-06T03:48:22.243Z,101790.08
2017-12-06T03:49:28.435Z,101786.57
2017-12-06T03:50:34.641Z,101791.79
2017-12-06T03:51:41.402Z,101794.42
2017-12-06T03:52:49.153Z,101790.91
2017-12-06T03:53:55.312Z,101793.94
2017-12-06T03:55:01.504Z,101790.48
2017-12-06T03:56:07.633Z,101796.58
2017-12-06T03:57:13.802Z,101790.47
2017-12-06T03:58:19.749Z,101799.19
2017-12-06T03:59:25.719Z,101791.33
2017-12-06T04:00:32.170Z,101793.95
2017-12-06T04:01:38.293Z,101793.53
2017-12-06T04:02:44.435Z,101797.41
2017-12-06T04:03:50.647Z,101799.15
2017-12-06T04:04:56.475Z,101792.24
2017-12-06T04:06:02.631Z,101793.58
2017-12-06T04:07:08.535Z,101797.91
2017-12-06T04:08:14.716Z,101792.72
2017-12-06T04:09:20.854Z,101787.91
2017-12-06T04:10:27.002Z,101784.91
2017-12-06T04:11:35.157Z,101786.20
2017-12-06T04:12:41.255Z,101787.05
2017-12-06T04:13:47.364Z,101782.28
2017-12-06T04:14:53.508Z,101791.39
2017-12-06T04:15:59.672Z,101791.39
2017-12-06T04:17:05.870Z,101795.77
2017-12-06T04:18:11.989Z,101790.13
2017-12-06T04:19:17.905Z,101784.91
2017-12-06T04:20:24.032Z,101791.41
2017-12-06T04:21:30.225Z,101786.64
2017-12-06T04:22:36.121Z,101784.02
2017-12-06T04:23:42.219Z,101786.58
2017-12-06T04:24:48.351Z,101782.23
2017-12-06T04:25:54.504Z,101784.85
2017-12-06T04:27:00.672Z,101785.31
2017-12-06T04:28:06.794Z,101781.83
2017-12-06T04:29:12.916Z,101780.05
2017-12-06T04:30:19.027Z,101777.04
2017-12-06T04:31:25.132Z,101775.31
2017-12-06T04:32:31.393Z,101776.59
2017-12-06T04:33:37.576Z,101775.77
2017-12-06T04:34:43.740Z,101782.26
2017-12-06T04:35:49.869Z,101776.63
2017-12-06T04:36:56.222Z,101766.61
2017-12-06T04:38:02.078Z,101772.25
2017-12-06T04:39:07.495Z,101770.52
2017-12-06T04:40:13.438Z,101774.41
2017-12-06T04:41:19.566Z,101770.53
2017-12-06T04:42:25.354Z,101773.98
2017-12-06T04:43:31.127Z,101767.92
2017-12-06T04:44:37.295Z,101772.67
2017-12-06T04:45:43.385Z,101775.77
2017-12-06T04:46:49.180Z,101761.86
2017-12-06T04:47:55.293Z,101767.93
2017-12-06T04:49:01.448Z,101766.25
2017-12-06T04:50:07.368Z,101768.35
2017-12-06T04:51:13.458Z,101767.48
2017-12-06T04:52:19.563Z,101773.98
2017-12-06T04:53:25.296Z,101770.52
2017-12-06T04:54:31.515Z,101770.53
2017-12-06T04:55:42.468Z,101769.67
2017-12-06T04:56:48.575Z,101766.63
2017-12-06T04:57:56.106Z,101768.83
2017-12-06T04:59:02.216Z,101770.96
2017-12-06T05:00:08.033Z,101760.09
2017-12-06T05:01:14.171Z,101759.66
2017-12-06T05:02:20.346Z,101761.38
2017-12-06T05:03:26.760Z,101757.91
2017-12-06T05:04:33.010Z,101758.35
2017-12-06T05:05:39.417Z,101757.91
2017-12-06T05:06:45.915Z,101749.20
2017-12-06T05:07:52.209Z,101747.94
2017-12-06T05:08:58.316Z,101755.30
2017-12-06T05:10:04.070Z,101750.98
2017-12-06T05:11:10.173Z,101750.09
2017-12-06T05:12:16.318Z,101753.11
2017-12-06T05:13:22.492Z,101751.36
2017-12-06T05:14:28.629Z,101757.03
2017-12-06T05:15:34.748Z,101762.69
2017-12-06T05:16:40.867Z,101759.20
2017-12-06T05:17:49.070Z,101751.36
2017-12-06T05:18:55.193Z,101752.66
2017-12-06T05:20:01.305Z,101758.31
2017-12-06T05:21:07.449Z,101756.59
2017-12-06T05:22:13.617Z,101751.81
2017-12-06T05:23:19.755Z,101757.47
2017-12-06T05:24:25.961Z,101757.50
2017-12-06T05:25:32.410Z,101761.41
2017-12-06T05:26:38.536Z,101758.40
2017-12-06T05:27:44.309Z,101757.95
2017-12-06T05:28:50.427Z,101754.04
2017-12-06T05:29:59.636Z,101755.34
2017-12-06T05:31:05.750Z,101753.59
2017-12-06T05:32:11.845Z,101752.27
2017-12-06T05:33:17.814Z,101747.54
2017-12-06T05:34:23.953Z,101747.50
2017-12-06T05:35:30.097Z,101738.80
2017-12-06T05:36:35.981Z,101748.40
2017-12-06T05:37:42.149Z,101744.48
2017-12-06T05:38:48.272Z,101750.56
2017-12-06T05:39:54.386Z,101746.20
2017-12-06T05:41:01.341Z,101745.77
2017-12-06T05:42:08.588Z,101750.50
2017-12-06T05:43:14.754Z,101754.41
2017-12-06T05:44:20.860Z,101750.55
2017-12-06T05:45:27.019Z,101751.83
2017-12-06T05:46:33.173Z,101752.27
2017-12-06T05:47:41.689Z,101755.72
2017-12-06T05:48:48.207Z,101754.41
2017-12-06T05:49:54.336Z,101756.16
2017-12-06T05:51:00.474Z,101760.05
2017-12-06T05:52:06.700Z,101757.89
2017-12-06T05:53:12.851Z,101763.13
2017-12-06T05:54:18.978Z,101758.33
2017-12-06T05:55:25.106Z,101764.84
2017-12-06T05:56:31.241Z,101762.20
2017-12-06T05:57:37.352Z,101763.09
2017-12-06T05:58:48.618Z,101759.23
2017-12-06T05:59:56.308Z,101754.05
2017-12-06T06:01:02.441Z,101748.83
2017-12-06T06:02:09.574Z,101751.00
2017-12-06T06:03:15.687Z,101742.77
2017-12-06T06:04:21.835Z,101738.83
2017-12-06T06:05:28.021Z,101737.11
2017-12-06T06:06:34.309Z,101720.61
2017-12-06T06:07:40.516Z,101744.10
2017-12-06T06:08:46.677Z,101736.23
2017-12-06T06:09:52.831Z,101729.70
2017-12-06T06:10:58.966Z,101727.55
2017-12-06T06:12:04.835Z,101720.59
2017-12-06T06:13:11.212Z,101725.31
2017-12-06T06:14:17.441Z,101728.82
2017-12-06T06:15:23.214Z,101735.80
2017-12-06T06:16:29.380Z,101732.77
2017-12-06T06:17:35.582Z,101738.83
2017-12-06T06:18:41.709Z,101742.70
2017-12-06T06:19:47.814Z,101738.83
2017-12-06T06:20:53.971Z,101747.50
2017-12-06T06:22:00.138Z,101742.70
2017-12-06T06:23:06.306Z,101734.87
2017-12-06T06:24:12.743Z,101750.55
2017-12-06T06:25:18.873Z,101756.63
2017-12-06T06:26:28.093Z,101745.33
2017-12-06T06:27:34.252Z,101748.37
2017-12-06T06:28:40.348Z,101747.05
2017-12-06T06:29:46.496Z,101752.73
2017-12-06T06:30:52.661Z,101752.75
2017-12-06T06:31:58.794Z,101748.37
2017-12-06T06:33:04.905Z,101752.31
2017-12-06T06:34:11.109Z,101744.53
2017-12-06T06:35:23.903Z,101748.42
2017-12-06T06:36:30.147Z,101746.76
2017-12-06T06:37:40.722Z,101744.56
2017-12-06T06:38:46.915Z,101745.84
2017-12-06T06:39:53.020Z,101740.18
2017-12-06T06:40:59.110Z,101737.12
2017-12-06T06:42:05.263Z,101746.75
2017-12-06T06:43:11.463Z,101743.70
2017-12-06T06:44:17.627Z,101741.09
2017-12-06T06:45:23.554Z,101736.31
2017-12-06T06:46:29.716Z,101741.94
2017-12-06T06:47:35.852Z,101744.09
2017-12-06T06:48:42.038Z,101747.58
2017-12-06T06:49:48.387Z,101744.50
2017-12-06T06:50:54.294Z,101751.00
2017-12-06T06:52:00.503Z,101748.39
2017-12-06T06:53:06.781Z,101747.50
2017-12-06T06:54:12.584Z,101752.70
2017-12-06T06:55:18.703Z,101754.41
2017-12-06T06:56:24.552Z,101751.40
2017-12-06T06:57:30.419Z,101762.25
2017-12-06T06:58:36.558Z,101759.23
2017-12-06T06:59:42.734Z,101758.40
2017-12-06T07:00:48.935Z,101773.16
2017-12-06T07:01:55.097Z,101770.98
2017-12-06T07:03:01.267Z,101767.09
2017-12-06T07:04:07.419Z,101771.02
2017-12-06T07:05:13.650Z,101771.00
2017-12-06T07:06:19.613Z,101772.72
2017-12-06T07:07:25.624Z,101771.43
2017-12-06T07:08:31.647Z,101770.09
2017-12-06T07:09:37.891Z,101769.25
2017-12-06T07:10:44.092Z,101774.02
2017-12-06T07:11:50.267Z,101773.98
2017-12-06T07:12:56.447Z,101779.66
2017-12-06T07:14:02.634Z,101770.08
2017-12-06T07:15:09.098Z,101777.48
2017-12-06T07:16:15.271Z,101770.53
2017-12-06T07:17:21.433Z,101767.02
2017-12-06T07:18:27.600Z,101770.49
2017-12-06T07:19:39.226Z,101772.23
2017-12-06T07:20:45.383Z,101770.59
2017-12-06T07:21:50.943Z,101770.11
2017-12-06T07:22:57.112Z,101765.77
2017-12-06T07:24:03.283Z,101762.75
2017-12-06T07:25:09.506Z,101770.09
2017-12-06T07:26:15.703Z,101769.27
2017-12-06T07:27:21.821Z,101768.83
2017-12-06T07:28:28.038Z,101769.28
2017-12-06T07:29:34.067Z,101775.35
2017-12-06T07:30:40.660Z,101776.23
2017-12-06T07:31:46.685Z,101773.19
2017-12-06T07:32:52.872Z,101777.53
2017-12-06T07:33:59.102Z,101774.08
2017-12-06T07:35:04.809Z,101777.56
2017-12-06T07:36:17.538Z,101774.06
2017-12-06T07:37:23.155Z,101779.24
2017-12-06T07:38:29.052Z,101777.54
2017-12-06T07:39:36.185Z,101778.39
2017-12-06T07:40:43.075Z,101777.49
2017-12-06T07:41:49.413Z,101783.14
2017-12-06T07:42:55.605Z,101777.95
2017-12-06T07:44:02.957Z,101784.91
2017-12-06T07:45:09.301Z,101777.53
2017-12-06T07:46:15.546Z,101784.49
2017-12-06T07:47:21.746Z,101787.49
2017-12-06T07:48:27.948Z,101780.09
2017-12-06T07:49:34.222Z,101784.42
2017-12-06T07:50:40.394Z,101783.10
2017-12-06T07:51:49.234Z,101786.55
2017-12-06T07:52:55.414Z,101772.64
2017-12-06T07:54:01.648Z,101778.28
2017-12-06T07:55:07.819Z,101771.77
2017-12-06T07:56:13.987Z,101769.63
2017-12-06T07:57:20.405Z,101771.80
2017-12-06T07:58:32.003Z,101767.04
2017-12-06T07:59:39.081Z,101772.23
2017-12-06T08:00:45.256Z,101769.66
2017-12-06T08:01:51.572Z,101764.88
2017-12-06T08:02:57.816Z,101767.08
2017-12-06T08:04:04.325Z,101767.95
2017-12-06T08:05:12.481Z,101769.66
2017-12-06T08:06:19.579Z,101767.89
2017-12-06T08:07:25.771Z,101765.70
2017-12-06T08:08:32.137Z,101767.89
2017-12-06T08:09:38.318Z,101760.50
2017-12-06T08:10:44.527Z,101761.80
2017-12-06T08:11:50.915Z,101759.61
2017-12-06T08:12:57.098Z,101771.37
2017-12-06T08:14:03.582Z,101765.28
2017-12-06T08:15:09.768Z,101766.59
2017-12-06T08:16:15.956Z,101770.05
2017-12-06T08:17:22.375Z,101772.27
2017-12-06T08:18:28.554Z,101772.30
2017-12-06T08:19:34.745Z,101777.50
2017-12-06T08:20:40.931Z,101770.95
2017-12-06T08:21:47.058Z,101778.37
2017-12-06T08:22:53.179Z,101778.80
2017-12-06T08:23:59.290Z,101774.00
2017-12-06T08:25:05.461Z,101776.63
2017-12-06T08:26:11.994Z,101778.34
2017-12-06T08:27:18.126Z,101774.02
2017-12-06T08:28:24.258Z,101780.08
2017-12-06T08:29:30.528Z,101784.41
2017-12-06T08:30:36.294Z,101788.76
2017-12-06T08:31:43.297Z,101781.34
2017-12-06T08:32:49.229Z,101788.30
2017-12-06T08:33:54.989Z,101785.23
2017-12-06T08:35:01.106Z,101782.66
2017-12-06T08:36:07.342Z,101776.98
2017-12-06T08:37:13.468Z,101780.47
2017-12-06T08:38:19.690Z,101773.98
2017-12-06T08:39:25.842Z,101780.89
2017-12-06T08:40:35.278Z,101779.16
2017-12-06T08:41:41.184Z,101778.72
2017-12-06T08:42:47.344Z,101779.16
2017-12-06T08:43:53.476Z,101780.42
2017-12-06T08:44:59.222Z,101779.11
2017-12-06T08:46:05.013Z,101773.03
2017-12-06T08:47:10.862Z,101766.09
2017-12-06T08:48:16.622Z,101772.20
2017-12-06T08:49:22.394Z,101775.70
2017-12-06T08:50:28.561Z,101774.37
2017-12-06T08:51:34.176Z,101770.89
2017-12-06T08:52:40.342Z,101768.73
2017-12-06T08:53:46.719Z,101769.16
2017-12-06T08:54:52.901Z,101774.81
2017-12-06T08:55:59.049Z,101775.64
2017-12-06T08:57:07.190Z,101773.03
2017-12-06T08:58:13.301Z,101779.52
2017-12-06T08:59:19.094Z,101782.58
2017-12-06T09:00:24.520Z,101784.36
2017-12-06T09:01:30.411Z,101783.94
2017-12-06T09:02:36.540Z,101783.08
2017-12-06T09:03:41.959Z,101780.89
2017-12-06T09:04:47.917Z,101779.58
2017-12-06T09:05:54.067Z,101780.88
2017-12-06T09:07:00.181Z,101770.44
2017-12-06T09:08:06.289Z,101776.05
2017-12-06T09:09:12.318Z,101779.59
2017-12-06T09:10:20.276Z,101772.67
2017-12-06T09:11:25.741Z,101772.20
2017-12-06T09:12:30.951Z,101780.84
2017-12-06T09:13:36.219Z,101777.85
2017-12-06T09:14:42.333Z,101773.05
2017-12-06T09:15:48.295Z,101781.34
2017-12-06T09:16:54.285Z,101782.62
2017-12-06T09:18:00.376Z,101785.19
2017-12-06T09:19:06.494Z,101784.78
2017-12-06T09:20:12.307Z,101781.27
2017-12-06T09:21:18.456Z,101785.60
2017-12-06T09:22:28.367Z,101783.86
2017-12-06T09:23:34.166Z,101784.73
2017-12-06T09:24:40.277Z,101789.55
2017-12-06T09:25:46.158Z,101789.52
2017-12-06T09:26:52.310Z,101787.77
2017-12-06T09:27:58.455Z,101792.05
2017-12-06T09:29:04.615Z,101790.31
2017-12-06T09:30:10.807Z,101794.25
2017-12-06T09:31:16.259Z,101786.44
2017-12-06T09:32:22.287Z,101793.39
2017-12-06T09:33:28.398Z,101788.61
2017-12-06T09:34:35.550Z,101784.27
2017-12-06T09:35:41.761Z,101783.41
2017-12-06T09:36:47.873Z,101780.85
2017-12-06T09:37:54.046Z,101783.88
2017-12-06T09:38:59.864Z,101776.49
2017-12-06T09:40:05.702Z,101775.66
2017-12-06T09:41:11.289Z,101776.50
2017-12-06T09:42:17.403Z,101781.69
2017-12-06T09:43:23.573Z,101774.31
2017-12-06T09:44:29.741Z,101775.13
2017-12-06T09:45:35.866Z,101776.39
2017-12-06T09:46:42.041Z,101771.62
2017-12-06T09:47:48.192Z,101773.81
2017-12-06T09:48:54.338Z,101767.25
2017-12-06T09:50:00.490Z,101768.63
2017-12-06T09:51:06.796Z,101769.05
2017-12-06T09:52:12.943Z,101769.44
2017-12-06T09:53:19.049Z,101775.50
2017-12-06T09:54:25.208Z,101771.66
2017-12-06T09:55:31.353Z,101772.06
2017-12-06T09:56:37.533Z,101774.72
2017-12-06T09:57:43.734Z,101769.08
2017-12-06T09:58:49.874Z,101770.38
2017-12-06T09:59:56.000Z,101768.16
2017-12-06T10:01:05.959Z,101768.19
2017-12-06T10:02:12.127Z,101763.84
2017-12-06T10:03:18.240Z,101765.11
2017-12-06T10:04:24.368Z,101764.27
2017-12-06T10:05:30.483Z,101761.68
2017-12-06T10:06:36.665Z,101765.18
2017-12-06T10:07:42.810Z,101765.61
2017-12-06T10:08:49.353Z,101766.00
2017-12-06T10:09:55.442Z,101766.88
2017-12-06T10:11:01.533Z,101763.36
2017-12-06T10:12:07.671Z,101760.30
2017-12-06T10:13:13.819Z,101763.30
2017-12-06T10:14:19.960Z,101764.15
2017-12-06T10:15:26.101Z,101760.27
2017-12-06T10:16:32.230Z,101763.73
2017-12-06T10:17:38.216Z,101754.61
2017-12-06T10:18:44.322Z,101755.09
2017-12-06T10:19:50.466Z,101759.44
2017-12-06T10:20:56.224Z,101755.07
2017-12-06T10:22:02.446Z,101761.56
2017-12-06T10:23:08.572Z,101764.19
2017-12-06T10:24:14.369Z,101758.52
2017-12-06T10:25:19.628Z,101755.48
2017-12-06T10:26:25.460Z,101753.28
2017-12-06T10:27:31.623Z,101753.74
2017-12-06T10:28:37.441Z,101756.34
2017-12-06T10:29:43.567Z,101759.83
2017-12-06T10:30:49.367Z,101758.95
2017-12-06T10:31:55.526Z,101755.91
2017-12-06T10:33:01.648Z,101754.12
2017-12-06T10:34:07.823Z,101751.52
2017-12-06T10:35:14.013Z,101752.36
2017-12-06T10:36:20.194Z,101747.17
2017-12-06T10:37:26.340Z,101750.65
2017-12-06T10:38:32.649Z,101748.91
2017-12-06T10:39:38.809Z,101745.00
2017-12-06T10:40:44.916Z,101745.41
2017-12-06T10:41:50.733Z,101741.52
2017-12-06T10:42:56.861Z,101738.42
2017-12-06T10:44:03.224Z,101739.31
2017-12-06T10:45:09.453Z,101735.06
2017-12-06T10:46:14.880Z,101732.89
2017-12-06T10:47:20.876Z,101734.60
2017-12-06T10:48:26.692Z,101742.41
2017-12-06T10:49:32.858Z,101733.28
2017-12-06T10:50:39.027Z,101736.27
2017-12-06T10:51:45.180Z,101743.26
2017-12-06T10:52:51.060Z,101734.97
2017-12-06T10:53:57.370Z,101733.72
2017-12-06T10:55:03.511Z,101733.28
2017-12-06T10:56:09.631Z,101735.05
2017-12-06T10:57:15.750Z,101729.44
2017-12-06T10:58:21.972Z,101732.45
2017-12-06T10:59:28.165Z,101725.47
2017-12-06T11:00:34.145Z,101729.85
2017-12-06T11:01:40.104Z,101732.00
2017-12-06T11:02:46.266Z,101732.43
2017-12-06T11:03:52.384Z,101723.25
2017-12-06T11:04:58.543Z,101725.81
2017-12-06T11:06:04.352Z,101727.11
2017-12-06T11:07:10.507Z,101728.80
2017-12-06T11:08:16.617Z,101730.52
2017-12-06T11:09:22.826Z,101725.29
2017-12-06T11:10:29.001Z,101720.51
2017-12-06T11:11:35.103Z,101718.33
2017-12-06T11:12:41.224Z,101720.05
2017-12-06T11:13:47.334Z,101726.13
2017-12-06T11:14:53.575Z,101717.92
2017-12-06T11:16:02.382Z,101715.75
2017-12-06T11:17:08.565Z,101726.56
2017-12-06T11:18:14.744Z,101720.97
2017-12-06T11:19:20.820Z,101720.09
2017-12-06T11:20:27.010Z,101717.05
2017-12-06T11:21:33.151Z,101712.81
2017-12-06T11:22:39.338Z,101716.70
2017-12-06T11:23:45.464Z,101708.00
2017-12-06T11:24:51.576Z,101724.06
2017-12-06T11:25:57.734Z,101712.78
2017-12-06T11:27:03.847Z,101709.31
2017-12-06T11:28:09.710Z,101712.73
2017-12-06T11:29:15.917Z,101707.05
2017-12-06T11:30:22.051Z,101709.28
2017-12-06T11:31:28.216Z,101712.35
2017-12-06T11:32:37.563Z,101702.78
2017-12-06T11:33:43.685Z,101709.31
2017-12-06T11:34:49.792Z,101709.71
2017-12-06T11:35:56.019Z,101705.77
2017-12-06T11:37:02.151Z,101705.77
2017-12-06T11:38:08.294Z,101701.42
2017-12-06T11:39:14.494Z,101702.27
2017-12-06T11:40:20.964Z,101704.78
2017-12-06T11:41:27.140Z,101703.45
2017-12-06T11:42:33.458Z,101710.81
2017-12-06T11:43:39.666Z,101707.37
2017-12-06T11:44:45.784Z,101704.33
2017-12-06T11:45:51.879Z,101701.27
2017-12-06T11:46:58.041Z,101710.01
2017-12-06T11:48:04.149Z,101706.96
2017-12-06T11:49:10.278Z,101706.99
2017-12-06T11:50:16.434Z,101703.16
2017-12-06T11:51:22.603Z,101707.89
2017-12-06T11:52:28.727Z,101697.77
2017-12-06T11:53:34.937Z,101703.91
2017-12-06T11:54:41.123Z,101703.98
2017-12-06T11:55:47.235Z,101704.35
2017-12-06T11:56:53.375Z,101704.78
2017-12-06T11:57:59.521Z,101702.20
2017-12-06T11:59:05.689Z,101708.76
2017-12-06T12:00:11.171Z,101704.84
2017-12-06T12:01:17.274Z,101707.48
2017-12-06T12:02:23.393Z,101710.15
2017-12-06T12:03:29.518Z,101707.02
2017-12-06T12:04:35.630Z,101702.27
2017-12-06T12:05:41.788Z,101705.72
2017-12-06T12:06:47.959Z,101709.72
2017-12-06T12:07:54.084Z,101711.80
2017-12-06T12:09:00.251Z,101712.67
2017-12-06T12:10:07.283Z,101710.94
2017-12-06T12:11:13.453Z,101704.78
2017-12-06T12:12:19.609Z,101706.55
2017-12-06T12:13:25.722Z,101712.24
2017-12-06T12:14:31.820Z,101710.48
2017-12-06T12:15:37.818Z,101710.01
2017-12-06T12:16:43.949Z,101708.67
2017-12-06T12:17:50.096Z,101702.55
2017-12-06T12:18:56.207Z,101708.64
2017-12-06T12:20:02.111Z,101711.28
2017-12-06T12:21:08.219Z,101708.27
2017-12-06T12:22:14.367Z,101705.66
2017-12-06T12:23:20.535Z,101708.30
2017-12-06T12:24:26.712Z,101704.41
2017-12-06T12:25:32.944Z,101703.91
2017-12-06T12:26:39.181Z,101709.14
2017-12-06T12:27:45.312Z,101705.22
2017-12-06T12:28:51.429Z,101702.17
2017-12-06T12:29:57.587Z,101709.08
2017-12-06T12:31:03.719Z,101707.30
2017-12-06T12:32:09.908Z,101702.95
2017-12-06T12:33:16.144Z,101700.34
2017-12-06T12:34:22.324Z,101698.60
2017-12-06T12:35:28.441Z,101702.92
2017-12-06T12:36:33.971Z,101702.05
2017-12-06T12:37:39.244Z,101702.08